Time;durP1;ratioP1;P1;durP2;ratioP2;P2;SDS_P1;SDS_P2;PMS_P1;PMS_P2;Temp;Humidity;BMP_temperature;BMP_pressure;BME280_temperature;BME280_humidity;BME280_pressure;Samples;Min_cycle;Max_cycle;Signal;HPM_P1;HPM_P2
2022/01/31 00:02:29;;;;;;;26.45;8.45;;;;;;;2.50;64.78;99600.38;5140881;28;20050;-71
2022/01/31 00:05:20;;;;;;;36.15;9.30;;;;;;;2.67;64.71;99607.38;5143238;28;20359;-71
2022/01/31 00:08:09;;;;;;;22.85;8.38;;;;;;;2.60;65.35;99595.53;5135006;28;20054;-71
2022/01/31 00:10:59;;;;;;;33.30;9.80;;;;;;;2.38;65.03;99580.06;5143583;28;20538;-71
2022/01/31 00:14:00;;;;;;;29.52;8.45;;;;;;;2.46;64.58;99603.25;5143642;28;20058;-72
2022/01/31 00:16:50;;;;;;;26.23;8.95;;;;;;;2.38;66.03;99594.91;5143481;28;20055;-72
2022/01/31 00:19:42;;;;;;;27.05;8.50;;;;;;;2.58;65.16;99572.06;5144950;28;20928;-70
2022/01/31 00:22:33;;;;;;;34.80;10.07;;;;;;;2.60;64.88;99561.50;5142047;28;20105;-72
2022/01/31 00:25:23;;;;;;;23.98;8.30;;;;;;;2.30;65.68;99570.00;5143066;28;20050;-71
2022/01/31 00:28:14;;;;;;;25.70;8.05;;;;;;;2.28;65.23;99563.97;5137019;28;20046;-73
2022/01/31 00:31:04;;;;;;;21.27;7.95;;;;;;;2.36;65.29;99558.38;5141057;28;20129;-73
2022/01/31 00:33:54;;;;;;;26.73;8.85;;;;;;;2.38;64.94;99556.50;5142983;28;20524;-72
2022/01/31 00:36:44;;;;;;;26.30;8.60;;;;;;;2.32;65.76;99551.59;5141329;28;20054;-72
2022/01/31 00:39:36;;;;;;;21.90;7.97;;;;;;;2.58;65.63;99551.13;5155538;28;20070;-72
2022/01/31 00:42:28;;;;;;;18.00;7.30;;;;;;;2.72;66.07;99525.97;5140796;28;20506;-73
2022/01/31 00:45:28;;;;;;;27.52;7.78;;;;;;;2.67;65.45;99518.34;5154916;28;20062;-73
2022/01/31 00:48:24;;;;;;;36.13;8.70;;;;;;;2.56;65.26;99503.22;5149090;28;20074;-73
2022/01/31 00:51:14;;;;;;;23.73;8.35;;;;;;;2.94;65.01;99489.00;5151795;28;20042;-73
2022/01/31 00:54:05;;;;;;;26.13;8.10;;;;;;;2.86;64.60;99478.09;5143257;28;20047;-73
2022/01/31 00:56:55;;;;;;;25.15;8.40;;;;;;;2.85;65.16;99473.75;5125633;28;20552;-73
2022/01/31 00:59:50;;;;;;;40.53;9.27;;;;;;;2.97;64.71;99476.56;5142098;28;20061;-73
2022/01/31 01:02:41;;;;;;;28.30;9.32;;;;;;;2.94;65.16;99475.88;5142595;28;20505;-73
2022/01/31 01:05:31;;;;;;;37.85;9.80;;;;;;;3.05;65.18;99468.31;5155107;28;20080;-73
2022/01/31 01:08:21;;;;;;;34.92;9.65;;;;;;;3.11;64.65;99457.47;5145746;28;20054;-73
2022/01/31 01:11:11;;;;;;;29.20;8.35;;;;;;;3.17;64.92;99458.91;5154731;28;20149;-73
2022/01/31 01:14:02;;;;;;;31.70;8.52;;;;;;;3.34;64.28;99471.06;5153933;28;21008;-73
2022/01/31 01:16:52;;;;;;;25.98;8.07;;;;;;;3.28;63.93;99461.78;5139387;28;20058;-73
2022/01/31 01:19:43;;;;;;;24.17;8.50;;;;;;;3.29;64.42;99447.75;5142157;28;20173;-73
2022/01/31 01:22:33;;;;;;;24.77;8.05;;;;;;;3.36;64.23;99430.72;5147120;28;20566;-73
2022/01/31 01:25:24;;;;;;;24.60;8.43;;;;;;;3.49;64.00;99425.63;5154506;28;20070;-72
2022/01/31 01:28:14;;;;;;;34.42;9.68;;;;;;;3.12;65.42;99401.53;5141045;28;20058;-70
2022/01/31 01:31:04;;;;;;;27.77;8.65;;;;;;;3.20;65.12;99415.03;5142168;28;20105;-70
2022/01/31 01:33:59;;;;;;;23.60;7.55;;;;;;;3.29;65.04;99397.94;5138438;28;20074;-70
2022/01/31 01:36:53;;;;;;;29.60;8.10;;;;;;;3.49;64.06;99392.38;5142627;28;20577;-70
2022/01/31 01:39:45;;;;;;;23.20;7.38;;;;;;;3.27;64.27;99371.81;5141074;28;20051;-70
2022/01/31 01:42:36;;;;;;;27.38;7.88;;;;;;;3.35;64.46;99354.81;5154242;28;20092;-70
2022/01/31 01:45:26;;;;;;;26.50;8.13;;;;;;;3.57;64.63;99341.28;5137304;28;20046;-70
2022/01/31 01:48:17;;;;;;;23.08;7.88;;;;;;;3.51;63.54;99305.81;5143509;28;20589;-70
2022/01/31 01:51:08;;;;;;;27.98;7.80;;;;;;;3.37;65.04;99288.25;5149939;28;20062;-70
2022/01/31 01:54:00;;;;;;;27.95;6.18;;;;;;;3.72;64.23;99280.88;5144012;28;20050;-70
2022/01/31 01:56:51;;;;;;;24.42;5.40;;;;;;;3.75;64.04;99272.00;5125812;28;20689;-70
2022/01/31 01:59:42;;;;;;;30.00;6.18;;;;;;;4.14;63.14;99254.69;5140388;28;20055;-70
2022/01/31 02:02:46;;;;;;;21.10;5.10;;;;;;;4.78;60.92;99234.81;5140679;28;20066;-70
2022/01/31 02:05:40;;;;;;;28.00;5.82;;;;;;;4.63;61.39;99230.53;5142173;28;20094;-70
2022/01/31 02:08:40;;;;;;;21.20;5.88;;;;;;;4.71;61.86;99218.59;5154406;28;20053;-70
2022/01/31 02:11:31;;;;;;;25.00;4.97;;;;;;;4.17;62.83;99202.00;5154075;28;20047;-70
2022/01/31 02:14:23;;;;;;;21.85;5.25;;;;;;;4.03;63.91;99210.78;5154313;28;20058;-70
2022/01/31 02:17:52;;;;;;;21.60;5.05;;;;;;;4.02;63.76;99195.97;5127195;28;20093;-70
2022/01/31 02:20:43;;;;;;;31.60;5.78;;;;;;;4.27;63.12;99174.22;5130006;28;20093;-70
2022/01/31 02:23:36;;;;;;;21.33;5.40;;;;;;;4.33;62.85;99179.09;5140609;28;20506;-70
2022/01/31 02:26:50;;;;;;;22.73;5.60;;;;;;;4.08;63.75;99179.00;5155954;28;20054;-70
2022/01/31 02:29:50;;;;;;;19.13;5.20;;;;;;;4.09;64.04;99173.66;5144274;28;20524;-70
2022/01/31 02:32:42;;;;;;;18.73;5.55;;;;;;;4.22;63.22;99171.91;5158024;28;20494;-70
2022/01/31 02:35:34;;;;;;;24.63;6.72;;;;;;;3.97;63.66;99184.91;5144581;28;20062;-70
2022/01/31 02:38:25;;;;;;;24.42;6.85;;;;;;;3.99;64.21;99177.81;5158303;28;20102;-70
2022/01/31 02:41:17;;;;;;;32.38;8.07;;;;;;;3.97;64.04;99164.81;5145359;28;20129;-70
2022/01/31 02:44:14;;;;;;;26.10;7.47;;;;;;;4.01;64.05;99139.22;5145611;28;20465;-70
2022/01/31 02:47:39;;;;;;;20.00;7.18;;;;;;;4.20;63.43;99125.72;5156588;28;20613;-70
2022/01/31 02:50:29;;;;;;;22.20;4.90;;;;;;;4.41;62.20;99119.06;5145045;28;20086;-70
2022/01/31 02:53:29;;;;;;;29.52;5.38;;;;;;;4.81;61.17;99120.81;5154551;28;20070;-70
2022/01/31 02:56:20;;;;;;;26.95;5.30;;;;;;;4.77;60.12;99045.75;5155058;28;20108;-70
2022/01/31 02:59:10;;;;;;;19.42;4.97;;;;;;;4.85;60.48;99046.91;5156667;28;20057;-70
2022/01/31 03:02:01;;;;;;;23.58;5.10;;;;;;;5.05;60.27;99066.53;5157501;28;20046;-70
2022/01/31 03:04:51;;;;;;;33.92;6.25;;;;;;;4.87;60.28;99062.59;5138284;28;20568;-70
2022/01/31 03:07:41;;;;;;;22.58;5.60;;;;;;;4.83;61.14;99061.09;5145224;28;20355;-70
2022/01/31 03:10:32;;;;;;;24.13;5.68;;;;;;;4.79;60.64;99046.50;5143958;28;20413;-72
2022/01/31 03:13:22;;;;;;;17.40;5.22;;;;;;;4.20;62.52;99021.56;5130463;28;20073;-73
2022/01/31 03:16:14;;;;;;;24.00;5.70;;;;;;;4.56;62.09;99012.16;5157128;28;20418;-73
2022/01/31 03:19:38;;;;;;;23.20;4.85;;;;;;;4.51;61.45;98988.00;5140469;28;20125;-73
2022/01/31 03:22:30;;;;;;;22.80;5.43;;;;;;;4.57;61.48;99003.34;5146909;28;20200;-73
2022/01/31 03:25:20;;;;;;;20.95;5.40;;;;;;;4.54;61.90;98985.16;5153685;28;20539;-73
2022/01/31 03:28:10;;;;;;;25.33;5.20;;;;;;;4.29;61.95;98964.16;5153110;28;20545;-73
2022/01/31 03:31:01;;;;;;;24.63;4.68;;;;;;;4.34;61.94;98954.19;5144506;28;20068;-73
2022/01/31 03:33:54;;;;;;;20.35;4.93;;;;;;;4.48;61.70;98925.19;5144301;28;20049;-73
2022/01/31 03:36:45;;;;;;;17.90;5.13;;;;;;;4.27;62.74;98930.13;5150463;28;20054;-73
2022/01/31 03:39:40;;;;;;;25.95;5.03;;;;;;;4.24;62.31;98944.34;5139930;28;20340;-73
2022/01/31 03:42:30;;;;;;;20.85;4.68;;;;;;;5.06;60.45;98957.84;5156484;28;20062;-73
2022/01/31 03:45:21;;;;;;;14.68;4.40;;;;;;;4.92;60.83;98981.63;5141971;28;20109;-73
2022/01/31 03:48:24;;;;;;;20.17;4.77;;;;;;;4.64;61.57;98973.09;5146947;28;20062;-73
2022/01/31 03:51:18;;;;;;;25.15;4.85;;;;;;;5.04;60.70;98970.28;5142277;28;20089;-73
2022/01/31 03:54:08;;;;;;;17.40;4.25;;;;;;;5.11;60.13;98961.00;5144672;28;20053;-73
2022/01/31 03:57:00;;;;;;;15.25;4.47;;;;;;;5.13;59.08;98942.47;5138861;28;20067;-73
2022/01/31 04:00:13;;;;;;;24.88;5.00;;;;;;;5.73;58.28;98956.50;5143159;28;20137;-73
2022/01/31 04:03:07;;;;;;;18.13;4.63;;;;;;;5.61;58.19;98945.94;5144263;28;20054;-73
2022/01/31 04:05:57;;;;;;;24.35;4.43;;;;;;;5.44;58.40;98925.31;5145050;28;20050;-73
2022/01/31 04:08:47;;;;;;;16.27;4.35;;;;;;;5.55;58.36;98940.28;5144062;28;20105;-73
2022/01/31 04:11:37;;;;;;;18.52;3.78;;;;;;;5.57;58.60;98936.59;5140140;28;20123;-73
2022/01/31 04:14:27;;;;;;;17.90;4.50;;;;;;;5.44;58.33;98946.34;5143983;28;20061;-73
2022/01/31 04:17:20;;;;;;;20.50;4.30;;;;;;;5.26;59.61;98943.25;5142657;28;20073;-73
2022/01/31 04:20:10;;;;;;;16.95;4.00;;;;;;;5.32;59.41;98920.94;5141421;28;20185;-72
2022/01/31 04:23:06;;;;;;;20.38;4.43;;;;;;;5.28;59.39;98909.81;5143438;28;20074;-72
2022/01/31 04:26:07;;;;;;;19.45;4.53;;;;;;;5.77;57.60;98911.44;5141735;28;20073;-72
2022/01/31 04:29:07;;;;;;;16.65;4.00;;;;;;;5.75;57.88;98905.44;5143633;28;20117;-72
2022/01/31 04:31:57;;;;;;;17.45;4.47;;;;;;;5.65;57.88;98893.94;5143166;28;20046;-72
2022/01/31 04:34:46;;;;;;;24.35;4.15;;;;;;;5.58;58.93;98896.19;5147378;28;20136;-72
2022/01/31 04:37:36;;;;;;;17.95;3.47;;;;;;;5.37;59.18;98879.41;5143579;28;20058;-73
2022/01/31 04:40:27;;;;;;;11.60;3.92;;;;;;;5.85;57.94;98866.13;5143111;28;20046;-72
2022/01/31 04:43:17;;;;;;;16.25;4.10;;;;;;;6.06;57.36;98854.00;5141958;28;20055;-73
2022/01/31 04:46:09;;;;;;;14.02;3.78;;;;;;;5.88;58.18;98829.06;5138824;28;20046;-73
2022/01/31 04:48:59;;;;;;;15.60;4.03;;;;;;;5.72;58.52;98818.88;5147742;28;20094;-73
2022/01/31 04:51:49;;;;;;;13.55;3.55;;;;;;;5.90;57.52;98800.84;5142946;28;20047;-73
2022/01/31 04:54:41;;;;;;;19.40;4.18;;;;;;;6.05;56.65;98798.81;5142795;28;20616;-72
2022/01/31 04:57:32;;;;;;;17.35;3.85;;;;;;;5.67;58.47;98788.63;5143122;28;20129;-73
2022/01/31 05:00:22;;;;;;;14.30;3.30;;;;;;;5.60;59.01;98783.00;5142357;28;20119;-73
2022/01/31 05:03:14;;;;;;;22.90;4.18;;;;;;;5.01;60.16;98772.56;5146199;28;20185;-73
2022/01/31 05:06:05;;;;;;;16.48;4.32;;;;;;;5.19;60.57;98758.88;5140745;28;20069;-73
2022/01/31 05:08:56;;;;;;;15.57;3.67;;;;;;;5.16;59.91;98735.44;5145218;28;20141;-73
2022/01/31 05:11:47;;;;;;;18.25;3.40;;;;;;;5.86;58.05;98717.81;5142867;28;20054;-73
2022/01/31 05:14:37;;;;;;;23.02;3.08;;;;;;;5.51;59.04;98710.88;5143116;28;20535;-73
2022/01/31 05:17:27;;;;;;;14.82;3.55;;;;;;;5.33;59.07;98712.28;5141601;28;20077;-73
2022/01/31 05:20:17;;;;;;;12.75;3.28;;;;;;;5.46;58.92;98702.50;5141975;28;20057;-73
2022/01/31 05:23:08;;;;;;;20.48;3.70;;;;;;;5.46;57.97;98607.84;5146935;28;20421;-73
2022/01/31 05:25:58;;;;;;;18.52;3.08;;;;;;;5.40;60.81;98709.09;5141987;28;20058;-73
2022/01/31 05:28:49;;;;;;;23.45;3.70;;;;;;;5.91;58.64;98702.50;5142822;28;20054;-73
2022/01/31 05:31:39;;;;;;;17.77;3.42;;;;;;;6.08;58.74;98683.59;5141609;28;20057;-73
2022/01/31 05:34:29;;;;;;;22.83;3.63;;;;;;;6.06;58.43;98671.53;5142698;28;20058;-73
2022/01/31 05:37:20;;;;;;;18.63;3.10;;;;;;;5.77;59.94;98660.69;5140955;28;20050;-73
2022/01/31 05:40:11;;;;;;;16.25;3.47;;;;;;;6.19;58.31;98652.94;5141752;28;20086;-73
2022/01/31 05:43:01;;;;;;;21.80;4.03;;;;;;;5.49;60.11;98638.34;5141793;28;20054;-73
2022/01/31 05:45:51;;;;;;;18.42;3.70;;;;;;;5.80;58.78;98615.72;5141082;28;20078;-73
2022/01/31 05:48:41;;;;;;;11.55;2.97;;;;;;;5.80;58.90;98608.66;5140559;28;20057;-73
2022/01/31 05:51:31;;;;;;;14.20;4.15;;;;;;;6.25;57.91;98615.59;5144659;28;20039;-73
2022/01/31 05:54:21;;;;;;;19.95;3.55;;;;;;;6.16;58.06;98614.56;5145022;28;20101;-73
2022/01/31 05:57:12;;;;;;;17.48;3.10;;;;;;;6.29;58.34;98595.94;5147270;28;20152;-73
2022/01/31 06:00:04;;;;;;;19.20;3.83;;;;;;;6.41;58.14;98608.09;5146010;28;20177;-73
2022/01/31 06:02:58;;;;;;;17.50;2.97;;;;;;;6.80;56.48;98592.56;5148527;28;20052;-73
2022/01/31 06:05:49;;;;;;;19.55;3.60;;;;;;;6.48;57.50;98582.94;5150175;28;20505;-72
2022/01/31 06:08:38;;;;;;;14.70;3.67;;;;;;;6.73;56.94;98565.06;5142214;28;20043;-71
2022/01/31 06:11:31;;;;;;;13.20;3.90;;;;;;;6.93;56.34;98585.28;5140817;28;20091;-72
2022/01/31 06:14:21;;;;;;;12.48;3.40;;;;;;;6.41;58.49;98576.50;5144130;28;20417;-73
2022/01/31 06:17:11;;;;;;;21.92;3.85;;;;;;;6.63;60.05;98578.19;5140262;28;20470;-71
2022/01/31 06:20:02;;;;;;;13.27;3.20;;;;;;;5.91;60.52;98539.38;5150762;28;20058;-70
2022/01/31 06:22:53;;;;;;;16.75;3.47;;;;;;;6.26;59.63;98554.09;5140509;28;20050;-71
2022/01/31 06:25:44;;;;;;;18.08;3.50;;;;;;;6.57;59.52;98553.19;5141682;28;20061;-72
2022/01/31 06:28:34;;;;;;;13.43;3.38;;;;;;;6.55;59.26;98552.47;5153645;28;20563;-73
2022/01/31 06:31:44;;;;;;;13.32;3.45;;;;;;;6.97;58.49;98557.69;5141105;28;20127;-73
2022/01/31 06:34:35;;;;;;;16.80;3.45;;;;;;;6.25;60.61;98555.03;5137799;28;20066;-73
2022/01/31 06:37:25;;;;;;;17.73;3.70;;;;;;;6.59;61.27;98561.81;5153073;28;20384;-70
2022/01/31 06:40:15;;;;;;;17.25;3.90;;;;;;;5.99;63.18;98557.19;5141648;28;20058;-72
2022/01/31 06:43:06;;;;;;;20.15;4.68;;;;;;;6.51;63.17;98564.22;5141971;28;20043;-72
2022/01/31 06:45:56;;;;;;;20.23;4.30;;;;;;;5.65;65.80;98547.56;5142740;28;20109;-71
2022/01/31 06:48:47;;;;;;;17.42;4.25;;;;;;;5.35;67.57;98573.69;5144380;28;20053;-70
2022/01/31 06:51:37;;;;;;;17.17;3.80;;;;;;;5.68;67.40;98574.59;5141224;28;20039;-71
2022/01/31 06:54:27;;;;;;;18.77;4.13;;;;;;;5.12;70.63;98571.06;5143219;28;20058;-70
2022/01/31 06:57:18;;;;;;;17.95;4.88;;;;;;;5.92;67.08;98593.66;5140776;28;20078;-71
2022/01/31 07:00:09;;;;;;;17.90;3.83;;;;;;;5.36;68.55;98570.09;5139737;28;20074;-69
2022/01/31 07:03:00;;;;;;;19.13;3.97;;;;;;;5.11;70.18;98587.81;5132994;28;20280;-67
2022/01/31 07:05:51;;;;;;;15.05;3.90;;;;;;;4.95;70.55;98587.31;5131685;28;20093;-69
2022/01/31 07:08:41;;;;;;;8.93;3.55;;;;;;;5.48;69.01;98584.91;5138507;28;20091;-69
2022/01/31 07:11:36;;;;;;;17.42;4.07;;;;;;;5.88;68.45;98573.81;5144249;28;20050;-70
2022/01/31 07:14:32;;;;;;;15.93;3.80;;;;;;;5.22;69.97;98568.56;5148766;28;20050;-69
2022/01/31 07:17:22;;;;;;;19.00;4.00;;;;;;;5.54;68.59;98571.28;5143815;28;20565;-70
2022/01/31 07:20:22;;;;;;;18.40;3.90;;;;;;;5.87;68.12;98577.41;5156746;28;20073;-69
2022/01/31 07:23:22;;;;;;;14.00;3.63;;;;;;;6.05;67.77;98583.00;5148270;28;20065;-68
2022/01/31 07:26:12;;;;;;;12.75;3.25;;;;;;;5.72;68.25;98584.75;5140100;28;20111;-69
2022/01/31 07:29:02;;;;;;;13.68;3.90;;;;;;;5.31;70.34;98577.53;5144235;28;20120;-69
2022/01/31 07:31:52;;;;;;;12.00;3.17;;;;;;;5.44;70.04;98565.09;5147743;28;20045;-68
2022/01/31 07:34:44;;;;;;;15.98;3.72;;;;;;;5.41;69.30;98570.59;5142266;28;20053;-68
2022/01/31 07:37:35;;;;;;;10.90;2.97;;;;;;;5.59;69.80;98573.53;5147595;28;20105;-69
2022/01/31 07:40:29;;;;;;;8.80;3.42;;;;;;;5.43;69.94;98581.81;5151169;28;20058;-69
2022/01/31 07:43:19;;;;;;;13.07;3.22;;;;;;;5.40;69.48;98574.19;5147393;28;20066;-70
2022/01/31 07:46:13;;;;;;;15.07;3.35;;;;;;;5.41;70.63;98581.09;5144035;28;20058;-69
2022/01/31 07:49:05;;;;;;;9.95;3.17;;;;;;;5.05;72.16;98564.63;5143252;28;20057;-70
2022/01/31 07:51:56;;;;;;;7.90;2.83;;;;;;;4.55;73.22;98579.84;5144812;28;20105;-69
2022/01/31 07:54:46;;;;;;;6.63;2.40;;;;;;;4.54;74.10;98591.31;5143280;28;20049;-70
2022/01/31 07:57:38;;;;;;;6.30;2.00;;;;;;;4.82;72.39;98586.59;5140622;28;20050;-70
2022/01/31 08:00:29;;;;;;;4.82;1.63;;;;;;;4.62;73.07;98586.31;5155920;28;20062;-69
2022/01/31 08:03:20;;;;;;;5.70;2.30;;;;;;;4.59;73.06;98586.53;5143917;28;20058;-70
2022/01/31 08:06:10;;;;;;;8.43;1.88;;;;;;;4.11;74.25;98607.63;5156995;28;20047;-70
2022/01/31 08:09:00;;;;;;;4.72;1.92;;;;;;;4.29;74.74;98601.97;5143254;28;20058;-69
2022/01/31 08:11:51;;;;;;;5.43;1.90;;;;;;;4.99;72.15;98620.28;5143878;28;20417;-71
2022/01/31 08:14:41;;;;;;;7.07;1.85;;;;;;;5.40;70.42;98624.97;5142384;28;20547;-69
2022/01/31 08:17:31;;;;;;;6.60;2.17;;;;;;;4.43;73.47;98617.53;5143152;28;20559;-68
2022/01/31 08:20:22;;;;;;;4.65;1.85;;;;;;;4.26;74.06;98610.06;5141697;28;20145;-69
2022/01/31 08:23:12;;;;;;;3.72;1.70;;;;;;;4.01;75.46;98596.13;5143309;28;20161;-70
2022/01/31 08:26:05;;;;;;;5.50;1.90;;;;;;;4.60;73.73;98611.00;5141872;28;20058;-69
2022/01/31 08:29:06;;;;;;;4.35;1.80;;;;;;;4.18;74.38;98623.75;5142562;28;20609;-70
2022/01/31 08:32:25;;;;;;;3.83;1.83;;;;;;;4.34;73.87;98611.19;5155431;28;20054;-70
2022/01/31 08:38:24;;;;;;;4.57;2.13;;;;;;;4.27;74.04;98612.56;5144544;28;20572;-70
2022/01/31 08:41:14;;;;;;;3.63;1.88;;;;;;;3.99;75.64;98616.38;5142579;28;20047;-70
2022/01/31 08:44:06;;;;;;;4.13;1.63;;;;;;;4.18;74.70;98608.84;5143249;28;20197;-70
2022/01/31 08:46:56;;;;;;;6.32;2.97;;;;;;;4.24;73.96;98586.56;5141571;28;20054;-69
2022/01/31 08:49:48;;;;;;;5.28;2.40;;;;;;;4.77;72.90;98579.06;5142666;28;20607;-70
2022/01/31 08:52:39;;;;;;;4.95;2.50;;;;;;;4.66;72.50;98555.41;5144844;28;20061;-70
2022/01/31 08:55:29;;;;;;;7.30;2.47;;;;;;;5.12;72.01;98564.97;5144872;28;20054;-69
2022/01/31 08:58:21;;;;;;;7.85;2.15;;;;;;;4.79;72.36;98565.81;5141483;28;20101;-70
2022/01/31 09:01:16;;;;;;;11.20;2.67;;;;;;;5.36;70.64;98538.56;5141285;28;20828;-69
2022/01/31 09:04:09;;;;;;;6.53;2.08;;;;;;;5.25;71.52;98538.56;5142327;28;20054;-69
2022/01/31 09:07:03;;;;;;;8.95;2.78;;;;;;;4.80;71.60;98551.72;5142595;28;20058;-69
2022/01/31 09:09:54;;;;;;;6.18;2.35;;;;;;;5.61;69.31;98546.16;5143963;28;20137;-69
2022/01/31 09:12:44;;;;;;;3.40;1.90;;;;;;;7.35;64.37;98545.66;5144437;28;20132;-70
2022/01/31 09:15:35;;;;;;;3.35;1.90;;;;;;;6.10;67.73;98549.25;5138305;28;20099;-70
2022/01/31 09:18:26;;;;;;;10.00;1.98;;;;;;;6.02;67.69;98544.59;5143676;28;20073;-70
2022/01/31 09:21:16;;;;;;;4.47;1.83;;;;;;;5.60;68.73;98544.50;5140909;28;20193;-69
2022/01/31 09:24:06;;;;;;;3.90;1.58;;;;;;;6.08;67.87;98536.22;5141699;28;20062;-69
2022/01/31 09:26:57;;;;;;;5.05;2.15;;;;;;;5.69;69.28;98547.31;5142933;28;20397;-70
2022/01/31 09:29:47;;;;;;;8.07;2.00;;;;;;;5.63;69.22;98543.41;5147974;28;20068;-69
2022/01/31 09:32:37;;;;;;;4.32;1.80;;;;;;;5.53;68.38;98545.94;5149298;28;20549;-69
2022/01/31 09:35:28;;;;;;;6.18;1.50;;;;;;;5.75;68.89;98531.06;5156658;28;20057;-69
2022/01/31 09:38:22;;;;;;;5.90;1.75;;;;;;;5.89;67.45;98541.28;5146677;28;20589;-70
2022/01/31 09:41:16;;;;;;;4.75;2.10;;;;;;;5.53;68.90;98539.81;5144203;28;20058;-69
2022/01/31 09:44:13;;;;;;;3.75;1.80;;;;;;;6.07;67.11;98552.97;5141797;28;20066;-70
2022/01/31 09:47:23;;;;;;;4.75;1.90;;;;;;;5.79;67.03;98532.47;5142174;28;20711;-69
2022/01/31 09:50:14;;;;;;;2.72;1.60;;;;;;;6.01;66.37;98544.75;5142295;28;20043;-70
2022/01/31 09:53:04;;;;;;;3.30;1.70;;;;;;;5.40;67.84;98553.16;5144043;28;20154;-69
2022/01/31 09:55:54;;;;;;;8.30;2.35;;;;;;;5.78;66.85;98554.47;5144446;28;20060;-69
2022/01/31 09:58:44;;;;;;;5.45;2.05;;;;;;;5.50;68.68;98561.13;5144528;28;20422;-69
2022/01/31 10:02:10;;;;;;;5.65;2.38;;;;;;;5.60;68.12;98552.38;5133562;28;20049;-70
2022/01/31 10:05:00;;;;;;;7.63;2.00;;;;;;;4.99;69.15;98565.09;5143809;28;20104;-69
2022/01/31 10:07:51;;;;;;;8.48;2.22;;;;;;;5.68;67.52;98559.66;5141423;28;20057;-69
2022/01/31 10:10:45;;;;;;;7.22;2.65;;;;;;;5.40;68.41;98555.78;5141950;28;20097;-69
2022/01/31 10:16:45;;;;;;;7.07;2.03;;;;;;;5.72;67.33;98554.97;5141967;28;20136;-70
2022/01/31 10:19:59;;;;;;;9.40;2.72;;;;;;;5.95;66.82;98546.06;5141476;28;20489;-69
2022/01/31 10:22:49;;;;;;;5.13;1.95;;;;;;;5.27;68.37;98540.13;5143567;28;20046;-69
2022/01/31 10:25:41;;;;;;;6.22;1.92;;;;;;;5.79;67.57;98540.34;5143251;28;20050;-70
2022/01/31 10:28:38;;;;;;;11.18;2.08;;;;;;;5.14;69.31;98536.81;5141453;28;20062;-68
2022/01/31 10:31:29;;;;;;;8.30;2.57;;;;;;;5.30;68.15;98507.53;5142809;28;20049;-70
2022/01/31 10:34:22;;;;;;;6.28;2.25;;;;;;;5.57;67.47;98536.84;5150510;28;20055;-70
2022/01/31 10:37:15;;;;;;;11.55;2.25;;;;;;;5.41;68.35;98542.50;5155231;28;20213;-70
2022/01/31 10:53:03;;;;;;;8.20;2.92;;;;;;;6.05;66.60;98504.03;5152982;28;20066;-71
2022/01/31 10:55:54;;;;;;;7.97;2.50;;;;;;;6.09;66.94;98518.63;5144440;28;20051;-70
2022/01/31 10:59:07;;;;;;;8.93;2.22;;;;;;;5.36;68.87;98502.59;5149127;28;20047;-70
2022/01/31 11:02:00;;;;;;;4.65;2.20;;;;;;;5.33;70.56;98497.59;5148624;28;20460;-70
2022/01/31 11:04:53;;;;;;;6.13;2.65;;;;;;;5.83;68.42;98508.44;5148539;28;20117;-70
2022/01/31 11:07:42;;;;;;;7.63;2.60;;;;;;;5.26;68.68;98474.53;5147299;28;20592;-73
2022/01/31 11:10:32;;;;;;;8.43;2.47;;;;;;;5.67;67.84;98513.28;5154010;28;20424;-72
2022/01/31 11:13:25;;;;;;;8.68;2.50;;;;;;;5.48;68.56;98500.75;5163387;28;20096;-73
2022/01/31 11:16:15;;;;;;;8.10;2.65;;;;;;;5.46;68.32;98492.16;5147534;28;20561;-72
2022/01/31 11:19:08;;;;;;;9.90;2.72;;;;;;;5.51;68.39;98490.00;5142845;28;20568;-72
2022/01/31 11:22:02;;;;;;;8.57;2.60;;;;;;;6.43;65.46;98490.31;5140510;28;20161;-74
2022/01/31 11:24:59;;;;;;;9.45;2.35;;;;;;;5.72;66.29;98491.84;5143844;28;20468;-72
2022/01/31 11:27:58;;;;;;;11.02;2.35;;;;;;;5.55;67.50;98501.94;5139271;28;20058;-72
2022/01/31 11:30:49;;;;;;;7.18;2.05;;;;;;;5.42;68.42;98501.25;5142888;28;20133;-72
2022/01/31 11:33:40;;;;;;;8.30;2.20;;;;;;;5.81;67.17;98493.72;5146626;28;20043;-72
2022/01/31 11:36:33;;;;;;;7.32;2.35;;;;;;;5.39;69.40;98497.06;5147027;28;20049;-71
2022/01/31 11:39:23;;;;;;;7.72;2.50;;;;;;;5.44;67.65;98501.97;5141701;28;20074;-70
2022/01/31 11:42:16;;;;;;;6.60;1.80;;;;;;;5.49;68.69;98518.19;5143894;28;20047;-70
2022/01/31 11:45:21;;;;;;;14.05;2.25;;;;;;;6.13;66.25;98504.25;5155014;28;20484;-70
2022/01/31 11:48:19;;;;;;;6.32;1.77;;;;;;;5.41;68.02;98510.94;5142975;28;20133;-71
2022/01/31 11:51:09;;;;;;;6.78;1.80;;;;;;;5.77;67.87;98497.56;5143122;28;20058;-70
2022/01/31 11:54:06;;;;;;;9.88;1.88;;;;;;;5.07;69.35;98506.72;5141946;28;20054;-70
2022/01/31 11:56:57;;;;;;;8.15;2.10;;;;;;;5.64;68.08;98500.38;5153597;28;20050;-70
2022/01/31 11:59:55;;;;;;;8.82;1.75;;;;;;;5.71;67.80;98495.44;5141834;28;20536;-71
2022/01/31 12:02:54;;;;;;;6.82;2.03;;;;;;;6.02;67.32;98488.50;5148806;28;20503;-71
2022/01/31 12:05:45;;;;;;;5.45;1.70;;;;;;;5.44;68.31;98493.25;5152130;28;20070;-74
2022/01/31 12:08:42;;;;;;;8.10;1.77;;;;;;;5.57;67.51;98492.13;5147832;28;20057;-71
2022/01/31 12:11:57;;;;;;;8.60;1.70;;;;;;;5.76;67.01;98485.34;5151186;28;20046;-71
2022/01/31 12:14:53;;;;;;;8.35;1.65;;;;;;;5.36;68.21;98468.44;5149312;28;20042;-71
2022/01/31 12:18:05;;;;;;;9.35;1.58;;;;;;;5.70;67.49;98472.75;5147560;28;20038;-71
2022/01/31 12:24:20;;;;;;;8.52;1.73;;;;;;;5.37;67.48;98461.38;5148478;28;20061;-71
2022/01/31 12:27:11;;;;;;;;;;;;;;;5.65;67.02;98465.19;5158601;28;20057;-73
2022/01/31 12:30:02;;;;;;;3.65;1.17;;;;;;;5.01;68.03;98460.72;5154082;28;19929;-72
2022/01/31 12:32:52;;;;;;;5.97;1.40;;;;;;;5.41;67.49;98462.78;5143430;28;20632;-71
2022/01/31 12:35:49;;;;;;;11.68;1.63;;;;;;;5.07;69.48;98468.13;5148496;28;20188;-72
2022/01/31 12:38:39;;;;;;;5.00;2.05;;;;;;;5.45;69.02;98463.38;5159188;28;20046;-72
2022/01/31 12:41:32;;;;;;;6.63;1.77;;;;;;;5.67;68.13;98459.84;5146696;28;20057;-71
2022/01/31 12:44:25;;;;;;;7.35;2.00;;;;;;;5.65;68.76;98457.31;5152170;28;20125;-72
2022/01/31 12:47:20;;;;;;;7.85;1.52;;;;;;;5.65;69.58;98447.63;5141330;28;20054;-71
2022/01/31 12:50:28;;;;;;;7.45;1.55;;;;;;;5.47;68.15;98450.94;5141564;28;20054;-70
2022/01/31 12:56:30;;;;;;;14.52;2.08;;;;;;;5.39;70.34;98433.16;5135199;28;20497;-69
2022/01/31 12:59:25;;;;;;;14.27;2.08;;;;;;;5.23;68.96;98459.00;5142391;28;20061;-69
2022/01/31 13:02:15;;;;;;;8.93;1.67;;;;;;;5.71;69.06;98463.88;5142639;28;20620;-69
2022/01/31 13:05:05;;;;;;;8.73;1.83;;;;;;;5.00;70.10;98447.69;5142416;28;20054;-69
2022/01/31 13:07:56;;;;;;;5.40;1.60;;;;;;;5.32;71.49;98453.84;5140097;28;20047;-70
2022/01/31 13:10:46;;;;;;;8.52;1.77;;;;;;;5.18;70.79;98433.09;5146197;28;20057;-69
2022/01/31 13:13:38;;;;;;;12.40;1.80;;;;;;;4.75;71.97;98447.03;5141300;28;20038;-69
2022/01/31 13:16:38;;;;;;;9.00;1.75;;;;;;;4.96;72.55;98444.47;5145033;28;20125;-69
2022/01/31 13:19:32;;;;;;;6.03;1.80;;;;;;;4.76;72.54;98459.19;5137327;28;20082;-69
2022/01/31 13:22:35;;;;;;;6.43;1.75;;;;;;;4.95;70.63;98469.09;5141775;28;20173;-69
2022/01/31 13:25:27;;;;;;;8.68;1.90;;;;;;;4.77;71.13;98453.00;5142060;28;20114;-70
2022/01/31 13:28:28;;;;;;;9.20;1.98;;;;;;;4.99;72.68;98459.16;5144702;28;20046;-70
2022/01/31 13:31:18;;;;;;;12.70;2.17;;;;;;;4.95;71.32;98443.66;5142839;28;20042;-70
2022/01/31 13:34:09;;;;;;;7.80;1.90;;;;;;;5.15;70.29;98438.59;5145803;28;20050;-70
2022/01/31 13:36:58;;;;;;;6.32;1.95;;;;;;;5.09;70.43;98433.81;5153157;28;20177;-70
2022/01/31 13:40:21;;;;;;;12.32;2.28;;;;;;;5.25;70.60;98407.16;5144198;28;20050;-70
2022/01/31 13:43:16;;;;;;;14.60;2.20;;;;;;;5.10;70.63;98436.34;5143209;28;20073;-70
2022/01/31 13:46:23;;;;;;;8.70;1.85;;;;;;;5.27;70.38;98436.78;5152879;28;20078;-70
2022/01/31 13:49:18;;;;;;;7.70;1.90;;;;;;;5.22;69.48;98420.53;5140002;28;20113;-70
2022/01/31 13:52:11;;;;;;;10.85;2.40;;;;;;;5.04;70.91;98425.50;5141582;28;20577;-69
2022/01/31 13:55:02;;;;;;;9.30;1.63;;;;;;;5.23;68.93;98407.28;5141738;28;20117;-70
2022/01/31 13:57:53;;;;;;;9.40;2.00;;;;;;;5.32;69.10;98426.72;5141318;28;20425;-70
2022/01/31 14:00:44;;;;;;;11.07;2.15;;;;;;;4.54;71.18;98417.22;5141699;28;20072;-70
2022/01/31 14:03:42;;;;;;;10.82;2.22;;;;;;;4.35;72.47;98423.03;5141692;28;20185;-71
2022/01/31 14:06:33;;;;;;;17.10;4.30;;;;;;;4.61;71.97;98427.09;5140854;28;20047;-69